Andrews Air Force Base
KADW : now visible

Airfield :











YOU CAN JOIN US ON...

 
LOGIN :

Register | Disclaimer

   EN    FR    IT 

 









Legend :    VFR   Marginal VFR   IFR   Intensive IFR   Very Intensive IFR
Visi :
Ceiling :
>= 8 km
>= 3000ft
5 to 8 km
1000 to 3000 ft
1500m to 5 km
500 to 1000 ft
800 to 1500m
200 to 500 ft
< 800m
< 200 ft
Symbols :   Thunderstorms  Fog  Heavy snow  Heavy precipitations  Wind > 20 kt






- Airport Elevation : 280 ft


KADW - Andrews Air Force Base

CURRENT METAR :
  • 041355Z AUTO 33004KT 10SM CLR 04/M04 A3027 RMK AO2 SLP259 T00361039 $

EXPIRED METARs :
  • 041255Z AUTO 35005KT 10SM CLR 02/M04 A3026 RMK AO2 SLP255 T00201039 $
  • 041155Z AUTO 35008KT 10SM CLR 02/M05 A3026 RMK AO2 SLP255 70034 T00191046 10056 20019 50007 $
  • 041055Z AUTO 34012KT 10SM CLR 03/M04 A3023 RMK AO2 SLP245 T00271043 $

TAF TAF KADW
Valid from the 04 at 09:00 until the 05 at 15:00 UTC


040900Z 0409/0515 35012KT 9999 SKC QNH3024INS
BECMG 0411/0412 33009KT 9999 FEW250 QNH3018INS
BECMG 0420/0421 27009KT 9999 SKC QNH3017INS TX06/0420Z TNM01/0509Z
KZDC FIR / North America



MET'MAP, your aeronautical weather chart ! - Copyright ORBIFLY December 2007 - Disclaimer

ORBIFLY MET'MAP TEAM :

Programming & Development : Alexandra Zaïnal
Original concept : Baudouin d'Aumeries
Technical & hardware support : Manuel Goepfert
Assistance : Marc-Olivier Méhu




SOURCES & CREDITS :

   NOAA       Earth
Advisory